Time;durP1;ratioP1;P1;durP2;ratioP2;P2;SDS_P1;SDS_P2;PMS_P1;PMS_P2;Temp;Humidity;BMP_temperature;BMP_pressure;BME280_temperature;BME280_humidity;BME280_pressure;Samples;Min_cycle;Max_cycle;Signal;HPM_P1;HPM_P2
2023/01/19 00:00:09;;;;;;;5.47;2.92;;;2.80;99.90;;;;;;4940899;29;20506;-62
2023/01/19 00:02:35;;;;;;;8.43;5.20;;;2.80;99.90;;;;;;4911838;29;20142;-62
2023/01/19 00:05:02;;;;;;;5.90;4.53;;;2.80;99.90;;;;;;4929168;29;20047;-62
2023/01/19 00:07:30;;;;;;;7.90;4.30;;;2.90;99.90;;;;;;4911898;29;20070;-62
2023/01/19 00:09:56;;;;;;;9.93;5.15;;;2.90;99.90;;;;;;4929228;29;20047;-62
2023/01/19 00:12:21;;;;;;;9.38;4.07;;;2.90;99.90;;;;;;4929184;29;20699;-62
2023/01/19 00:14:47;;;;;;;5.13;3.80;;;2.90;99.90;;;;;;4911428;29;20047;-63
2023/01/19 00:17:13;;;;;;;10.50;3.38;;;2.90;99.90;;;;;;4933348;29;20047;-62
2023/01/19 00:19:39;;;;;;;6.45;4.00;;;2.90;99.90;;;;;;4911804;29;20032;-62
2023/01/19 00:22:04;;;;;;;9.95;4.15;;;2.90;99.90;;;;;;4939946;29;20411;-62
2023/01/19 00:24:31;;;;;;;6.38;2.80;;;2.90;99.90;;;;;;4912067;29;20055;-62
2023/01/19 00:26:57;;;;;;;7.38;4.13;;;2.80;99.90;;;;;;4928842;29;20410;-62
2023/01/19 00:29:23;;;;;;;4.05;3.13;;;2.90;99.90;;;;;;4909049;29;20044;-62
2023/01/19 00:31:49;;;;;;;1.92;1.83;;;2.80;99.90;;;;;;4926346;29;20044;-62
2023/01/19 00:34:15;;;;;;;3.00;2.45;;;3.00;99.90;;;;;;4938515;29;20051;-62
2023/01/19 00:36:41;;;;;;;7.13;2.97;;;2.80;99.90;;;;;;4928344;29;20549;-62
2023/01/19 00:39:07;;;;;;;6.25;3.58;;;2.80;99.90;;;;;;4929445;29;20052;-62
2023/01/19 00:44:18;;;;;;;3.83;2.17;;;2.80;99.90;;;;;;4928721;29;20051;-62
2023/01/19 00:46:43;;;;;;;8.85;2.95;;;2.80;99.90;;;;;;4931390;29;20061;-62
2023/01/19 00:49:09;;;;;;;5.00;2.83;;;2.80;99.90;;;;;;4931693;29;20123;-62
2023/01/19 00:51:35;;;;;;;5.97;3.08;;;2.80;99.90;;;;;;4915210;29;20052;-64
2023/01/19 00:54:03;;;;;;;7.82;3.22;;;2.80;99.90;;;;;;4931371;29;20047;-64
2023/01/19 00:56:30;;;;;;;2.05;1.85;;;2.80;99.90;;;;;;4903720;29;20090;-64
2023/01/19 00:58:56;;;;;;;1.52;1.42;;;2.80;99.90;;;;;;4931896;29;20143;-64
2023/01/19 01:01:21;;;;;;;5.03;1.98;;;2.90;99.90;;;;;;4929837;29;20055;-64
2023/01/19 01:03:47;;;;;;;2.95;2.28;;;2.90;99.90;;;;;;4933992;29;20447;-64
2023/01/19 01:06:14;;;;;;;4.00;1.83;;;2.90;99.90;;;;;;4931612;29;20410;-64
2023/01/19 01:08:39;;;;;;;5.40;2.13;;;2.90;99.90;;;;;;4931875;29;20043;-64
2023/01/19 01:11:05;;;;;;;3.83;1.50;;;2.90;99.90;;;;;;4931351;29;20060;-64
2023/01/19 01:13:31;;;;;;;6.32;2.85;;;3.00;99.90;;;;;;4899532;29;20055;-64
2023/01/19 01:15:57;;;;;;;4.55;1.60;;;3.00;99.90;;;;;;4931469;29;20058;-64
2023/01/19 01:18:23;;;;;;;7.32;2.65;;;3.00;99.90;;;;;;4919512;29;20117;-64
2023/01/19 01:20:49;;;;;;;6.70;1.90;;;3.00;99.90;;;;;;4938841;29;20582;-64
2023/01/19 01:23:15;;;;;;;1.95;1.67;;;3.00;99.90;;;;;;4938218;29;20043;-64
2023/01/19 01:25:41;;;;;;;6.50;2.42;;;3.00;99.90;;;;;;4931841;29;20055;-64
2023/01/19 01:28:09;;;;;;;1.75;1.23;;;2.90;99.90;;;;;;4931294;29;20051;-64
2023/01/19 01:30:38;;;;;;;1.30;1.20;;;3.00;99.90;;;;;;4931765;29;20048;-64
2023/01/19 01:33:04;;;;;;;4.85;1.88;;;3.00;99.90;;;;;;4930686;29;20131;-64
2023/01/19 01:35:32;;;;;;;11.20;1.98;;;3.00;99.90;;;;;;4931740;29;20587;-64
2023/01/19 01:37:59;;;;;;;3.70;1.25;;;3.00;99.90;;;;;;4930187;29;20067;-64
2023/01/19 01:40:26;;;;;;;4.30;1.30;;;3.00;99.90;;;;;;4932201;29;20058;-64
2023/01/19 01:42:52;;;;;;;6.70;1.42;;;3.00;99.90;;;;;;4931415;29;20052;-64
2023/01/19 01:45:39;;;;;;;5.03;1.00;;;3.10;99.90;;;;;;4940275;29;20122;-64
2023/01/19 01:48:21;;;;;;;5.38;1.42;;;3.10;99.90;;;;;;4923153;29;20058;-64
2023/01/19 01:53:39;;;;;;;4.85;1.17;;;3.10;99.90;;;;;;4930796;29;20056;-64
2023/01/19 01:56:11;;;;;;;3.90;0.98;;;3.20;99.90;;;;;;4930337;29;20455;-64
2023/01/19 01:58:38;;;;;;;2.58;0.85;;;3.10;99.90;;;;;;4943751;29;20055;-65
2023/01/19 02:03:50;;;;;;;1.60;0.43;;;3.10;99.90;;;;;;4934339;29;20442;-64
2023/01/19 02:06:16;;;;;;;1.42;0.30;;;3.00;99.90;;;;;;4931350;29;20045;-64
2023/01/19 02:14:24;;;;;;;2.25;0.60;;;2.90;99.90;;;;;;4930972;29;20130;-64
2023/01/19 02:16:57;;;;;;;1.17;0.52;;;2.80;99.90;;;;;;4914344;29;20137;-65
2023/01/19 02:19:38;;;;;;;1.85;0.90;;;2.70;99.90;;;;;;4930715;29;20590;-64
2023/01/19 02:22:23;;;;;;;0.90;0.77;;;2.70;99.90;;;;;;4930247;29;20438;-64
2023/01/19 02:24:48;;;;;;;6.50;1.02;;;2.70;99.90;;;;;;4913892;29;20115;-64
2023/01/19 02:27:15;;;;;;;1.00;0.90;;;2.70;99.90;;;;;;4930724;29;20048;-64
2023/01/19 02:29:41;;;;;;;7.05;0.50;;;2.60;99.90;;;;;;4930334;29;20043;-64
2023/01/19 02:32:07;;;;;;;2.03;0.95;;;2.60;99.90;;;;;;4930880;29;20039;-64
2023/01/19 02:34:35;;;;;;;1.95;0.95;;;2.60;99.90;;;;;;4929851;29;20785;-64
2023/01/19 02:37:06;;;;;;;4.00;1.00;;;2.60;99.90;;;;;;4913510;29;20052;-64
2023/01/19 02:39:41;;;;;;;3.20;1.23;;;2.60;99.90;;;;;;4930405;29;20086;-64
2023/01/19 02:42:24;;;;;;;1.17;1.02;;;2.60;99.90;;;;;;4930164;29;20477;-64
2023/01/19 02:44:53;;;;;;;2.38;1.10;;;2.60;99.90;;;;;;4931009;29;20087;-64
2023/01/19 02:47:19;;;;;;;1.58;1.00;;;2.60;99.90;;;;;;4918414;29;20130;-64
2023/01/19 02:49:53;;;;;;;1.00;0.60;;;2.60;99.90;;;;;;4913709;29;20051;-64
2023/01/19 02:52:21;;;;;;;1.27;0.82;;;2.70;99.90;;;;;;4929404;29;20130;-64
2023/01/19 02:55:18;;;;;;;1.23;0.43;;;2.60;99.90;;;;;;4929570;29;20087;-64
2023/01/19 02:58:00;;;;;;;1.00;0.90;;;2.60;99.90;;;;;;4930886;29;20051;-62
2023/01/19 03:00:44;;;;;;;4.85;1.63;;;2.60;99.90;;;;;;4929685;29;20459;-63
2023/01/19 03:03:34;;;;;;;2.08;1.73;;;2.60;99.90;;;;;;4929889;29;20122;-62
2023/01/19 03:06:21;;;;;;;4.20;1.33;;;2.60;99.90;;;;;;4930507;29;20074;-62
2023/01/19 03:09:03;;;;;;;3.50;1.83;;;2.60;99.90;;;;;;4913974;29;20541;-62
2023/01/19 03:11:35;;;;;;;6.13;2.35;;;2.60;99.90;;;;;;4929995;29;20047;-62
2023/01/19 03:14:17;;;;;;;3.13;2.30;;;2.60;99.90;;;;;;4929550;29;20507;-62
2023/01/19 03:16:47;;;;;;;4.50;2.00;;;2.60;99.90;;;;;;4912678;29;20163;-62
2023/01/19 03:19:21;;;;;;;3.95;1.58;;;2.70;99.90;;;;;;4930419;29;20410;-62
2023/01/19 03:21:53;;;;;;;3.33;2.40;;;2.60;99.90;;;;;;4911988;29;20090;-62
2023/01/19 03:24:21;;;;;;;1.40;1.30;;;2.70;99.90;;;;;;4929721;29;20087;-62
2023/01/19 03:26:56;;;;;;;4.25;2.20;;;2.60;99.90;;;;;;4929667;29;20118;-62
2023/01/19 03:29:26;;;;;;;4.38;2.20;;;2.70;99.90;;;;;;4929591;29;20058;-62
2023/01/19 03:31:53;;;;;;;6.15;2.95;;;2.70;99.90;;;;;;4929363;29;20063;-62
2023/01/19 03:34:22;;;;;;;1.33;0.93;;;2.80;99.90;;;;;;4927514;29;20051;-62
2023/01/19 03:36:52;;;;;;;4.68;2.28;;;2.70;99.90;;;;;;4940693;29;20059;-62
2023/01/19 03:39:24;;;;;;;5.07;1.88;;;2.70;99.90;;;;;;4928674;29;20056;-62
2023/01/19 03:41:55;;;;;;;1.67;0.90;;;2.70;99.90;;;;;;4928814;29;20060;-62
2023/01/19 03:44:22;;;;;;;5.05;2.22;;;2.70;99.90;;;;;;4922890;29;20059;-62
2023/01/19 03:46:49;;;;;;;2.90;1.40;;;2.70;99.90;;;;;;4928546;29;20047;-62
2023/01/19 03:49:15;;;;;;;3.20;2.10;;;2.70;99.90;;;;;;4929701;29;20060;-62
2023/01/19 03:51:41;;;;;;;2.65;2.30;;;2.70;99.90;;;;;;4928837;29;20139;-62
2023/01/19 03:54:09;;;;;;;2.47;2.30;;;2.70;99.90;;;;;;4913825;29;20208;-62
2023/01/19 03:56:34;;;;;;;3.72;2.58;;;2.70;99.90;;;;;;4928396;29;20052;-63
2023/01/19 03:59:00;;;;;;;1.23;1.15;;;2.70;99.90;;;;;;4929307;29;20447;-62
2023/01/19 04:01:26;;;;;;;4.45;2.13;;;2.70;99.90;;;;;;4927584;29;20067;-62
2023/01/19 04:03:52;;;;;;;2.90;2.70;;;2.70;99.90;;;;;;4928199;29;20150;-62
2023/01/19 04:06:19;;;;;;;3.80;2.60;;;2.70;99.90;;;;;;4929616;29;20491;-62
2023/01/19 04:08:48;;;;;;;6.28;2.92;;;2.70;99.90;;;;;;4928497;29;20110;-62
2023/01/19 04:11:13;;;;;;;4.45;2.90;;;2.70;99.90;;;;;;4930250;29;20426;-63
2023/01/19 04:13:39;;;;;;;5.38;3.30;;;2.70;99.90;;;;;;4928444;29;20051;-62
2023/01/19 04:16:06;;;;;;;5.57;3.33;;;2.70;99.90;;;;;;4929687;29;20055;-62
2023/01/19 04:18:33;;;;;;;3.72;2.78;;;2.70;99.90;;;;;;4928479;29;20098;-62
2023/01/19 04:21:00;;;;;;;5.80;2.92;;;2.80;99.90;;;;;;4931023;29;20091;-62
2023/01/19 04:23:27;;;;;;;4.60;3.97;;;2.70;99.90;;;;;;4919520;29;20052;-63
2023/01/19 04:26:01;;;;;;;7.85;3.80;;;2.70;99.90;;;;;;4927925;29;20044;-62
2023/01/19 04:28:27;;;;;;;4.70;3.78;;;2.80;99.90;;;;;;4899190;29;20051;-63
2023/01/19 04:30:53;;;;;;;8.48;3.80;;;2.80;99.90;;;;;;4914905;29;20043;-62
2023/01/19 04:33:20;;;;;;;6.72;4.15;;;2.70;99.90;;;;;;4920135;29;20055;-62
2023/01/19 04:35:47;;;;;;;3.47;2.67;;;2.80;99.90;;;;;;4932393;29;20047;-62
2023/01/19 04:38:14;;;;;;;9.75;4.60;;;2.80;99.90;;;;;;4932439;29;20418;-62
2023/01/19 04:40:40;;;;;;;7.28;3.10;;;2.80;99.90;;;;;;4932039;29;20061;-62
2023/01/19 04:43:07;;;;;;;6.40;3.50;;;2.80;99.90;;;;;;4915146;29;20043;-62
2023/01/19 04:45:33;;;;;;;7.88;3.40;;;2.80;99.90;;;;;;4932735;29;20051;-62
2023/01/19 04:47:58;;;;;;;7.40;4.13;;;2.70;99.90;;;;;;4932069;29;20074;-62
2023/01/19 04:50:24;;;;;;;8.80;4.43;;;2.70;99.90;;;;;;4933132;29;20099;-62
2023/01/19 04:52:50;;;;;;;7.55;4.03;;;2.70;99.90;;;;;;4931969;29;20052;-62
2023/01/19 04:55:17;;;;;;;10.68;4.25;;;2.60;99.90;;;;;;4932649;29;20055;-62
2023/01/19 04:57:43;;;;;;;5.75;3.85;;;2.60;99.90;;;;;;4931609;29;20051;-62
2023/01/19 05:00:09;;;;;;;7.35;4.22;;;2.60;99.90;;;;;;4932394;29;20499;-62
2023/01/19 05:02:35;;;;;;;6.75;3.95;;;2.50;99.90;;;;;;4931780;29;20411;-63
2023/01/19 05:05:04;;;;;;;4.40;4.00;;;2.50;99.90;;;;;;4932103;29;20047;-62
2023/01/19 05:07:30;;;;;;;6.70;4.35;;;2.50;99.90;;;;;;4903520;29;20062;-62
2023/01/19 05:09:56;;;;;;;6.30;4.28;;;2.50;99.90;;;;;;4931072;29;20052;-62
2023/01/19 05:12:22;;;;;;;7.43;4.57;;;2.50;99.90;;;;;;4932862;29;20054;-62
2023/01/19 05:14:47;;;;;;;4.18;3.83;;;2.50;99.90;;;;;;4931471;29;20407;-62
2023/01/19 05:17:13;;;;;;;11.57;3.67;;;2.50;99.90;;;;;;4932346;29;20107;-62
2023/01/19 05:19:39;;;;;;;6.60;3.78;;;2.50;99.90;;;;;;4931363;29;20036;-62
2023/01/19 05:22:05;;;;;;;6.53;3.75;;;2.40;99.90;;;;;;4931732;29;20530;-62
2023/01/19 05:24:32;;;;;;;5.70;3.60;;;2.40;99.90;;;;;;4899256;29;20099;-62
2023/01/19 05:26:57;;;;;;;9.90;4.50;;;2.40;99.90;;;;;;4930850;29;20058;-62
2023/01/19 05:29:23;;;;;;;5.15;4.03;;;2.40;99.90;;;;;;4903714;29;20134;-62
2023/01/19 05:31:49;;;;;;;6.63;4.30;;;2.30;99.90;;;;;;4929930;29;20502;-62
2023/01/19 05:34:14;;;;;;;9.55;4.25;;;2.30;99.90;;;;;;4932126;29;20058;-63
2023/01/19 05:36:41;;;;;;;8.93;3.97;;;2.30;99.90;;;;;;4931109;29;20055;-62
2023/01/19 05:39:07;;;;;;;7.97;4.03;;;2.20;99.90;;;;;;4931493;29;20459;-63
2023/01/19 05:41:33;;;;;;;5.10;3.47;;;2.20;99.90;;;;;;4928082;29;20502;-62
2023/01/19 05:43:59;;;;;;;6.40;4.15;;;2.20;99.90;;;;;;4914211;29;20039;-62
2023/01/19 05:46:25;;;;;;;5.07;3.63;;;2.10;99.90;;;;;;4932242;29;20131;-62
2023/01/19 05:48:51;;;;;;;7.72;4.05;;;2.20;99.90;;;;;;4930211;29;20304;-62
2023/01/19 05:51:17;;;;;;;13.27;4.03;;;2.20;99.90;;;;;;4931937;29;20569;-62
2023/01/19 05:53:42;;;;;;;4.78;3.53;;;2.20;99.90;;;;;;4930547;29;20043;-62
2023/01/19 05:56:10;;;;;;;6.28;3.50;;;2.20;99.90;;;;;;4931726;29;20048;-62
2023/01/19 05:58:38;;;;;;;5.30;3.22;;;2.20;99.90;;;;;;4930827;29;20411;-62
2023/01/19 06:01:06;;;;;;;10.35;4.97;;;2.20;99.90;;;;;;4930916;29;20119;-63
2023/01/19 06:03:33;;;;;;;5.93;2.92;;;2.20;99.90;;;;;;4930989;29;20119;-62
2023/01/19 06:06:00;;;;;;;9.43;3.88;;;2.20;99.90;;;;;;4912777;29;20412;-62
2023/01/19 06:08:26;;;;;;;9.18;4.18;;;2.20;99.90;;;;;;4935628;29;20566;-62
2023/01/19 06:10:52;;;;;;;6.82;4.38;;;2.10;99.90;;;;;;4930559;29;20093;-63
2023/01/19 06:13:18;;;;;;;7.57;3.63;;;2.10;99.90;;;;;;4915285;29;20059;-62
2023/01/19 06:15:43;;;;;;;4.70;3.78;;;2.10;99.90;;;;;;4931175;29;20044;-62
2023/01/19 06:18:15;;;;;;;9.20;3.67;;;2.10;99.90;;;;;;4933350;29;20478;-62
2023/01/19 06:20:42;;;;;;;9.25;4.22;;;2.00;99.90;;;;;;4919766;29;20067;-62
2023/01/19 06:23:09;;;;;;;10.45;4.10;;;2.00;99.90;;;;;;4930357;29;20486;-63
2023/01/19 06:25:35;;;;;;;10.85;3.90;;;2.00;99.90;;;;;;4914030;29;20055;-62
2023/01/19 06:28:01;;;;;;;8.00;3.45;;;2.00;99.90;;;;;;4930182;29;20123;-62
2023/01/19 06:30:27;;;;;;;7.15;3.80;;;2.00;99.90;;;;;;4931215;29;20051;-62
2023/01/19 06:32:53;;;;;;;14.68;4.45;;;1.90;99.90;;;;;;4928704;29;20039;-62
2023/01/19 06:35:20;;;;;;;9.38;4.50;;;2.00;99.90;;;;;;4929640;29;20111;-62
2023/01/19 06:37:45;;;;;;;5.45;3.72;;;1.90;99.90;;;;;;4911900;29;20098;-63
2023/01/19 06:40:11;;;;;;;7.60;3.60;;;1.90;99.90;;;;;;4931548;29;20117;-62
2023/01/19 06:42:37;;;;;;;12.55;3.80;;;1.90;99.90;;;;;;4897780;29;20055;-62
2023/01/19 06:45:04;;;;;;;7.55;3.55;;;2.00;99.90;;;;;;4914575;29;20052;-63
2023/01/19 06:47:30;;;;;;;12.25;3.90;;;2.00;99.90;;;;;;4930649;29;20051;-62
2023/01/19 06:49:56;;;;;;;4.18;1.90;;;2.20;99.90;;;;;;4931511;29;20052;-62
2023/01/19 06:52:21;;;;;;;9.23;1.85;;;2.50;99.90;;;;;;4923915;29;20047;-62
2023/01/19 06:54:47;;;;;;;13.50;2.47;;;2.50;99.90;;;;;;4897852;29;20052;-62
2023/01/19 06:57:14;;;;;;;8.93;1.60;;;2.60;99.90;;;;;;4930404;29;20487;-62
2023/01/19 06:59:40;;;;;;;7.80;2.53;;;2.60;99.90;;;;;;4930505;29;20051;-63
2023/01/19 07:02:05;;;;;;;10.30;2.40;;;2.60;99.90;;;;;;4929253;29;20044;-62
2023/01/19 07:04:32;;;;;;;11.45;1.90;;;2.60;99.90;;;;;;4930712;29;20074;-62
2023/01/19 07:06:58;;;;;;;12.95;2.00;;;2.60;99.90;;;;;;4917846;29;20050;-62
2023/01/19 07:09:24;;;;;;;6.57;1.50;;;2.50;99.90;;;;;;4930511;29;20052;-62
2023/01/19 07:11:50;;;;;;;11.02;1.40;;;2.60;99.90;;;;;;4929060;29;20052;-62
2023/01/19 07:14:16;;;;;;;14.65;1.95;;;2.60;99.90;;;;;;4911490;29;20091;-62
2023/01/19 07:16:42;;;;;;;10.82;2.03;;;2.60;99.90;;;;;;4929026;29;20046;-65
2023/01/19 07:19:09;;;;;;;12.10;1.40;;;2.60;99.90;;;;;;4929404;29;20052;-65
2023/01/19 07:21:35;;;;;;;9.57;1.80;;;2.60;99.90;;;;;;4919682;29;20058;-63
2023/01/19 07:24:01;;;;;;;10.40;1.58;;;2.70;99.90;;;;;;4928900;29;20126;-62
2023/01/19 07:26:28;;;;;;;11.43;1.40;;;2.70;99.90;;;;;;4930114;29;20598;-63
2023/01/19 07:28:54;;;;;;;10.07;0.85;;;2.70;99.90;;;;;;4928933;29;20055;-62
2023/01/19 07:31:19;;;;;;;10.82;1.20;;;2.70;99.90;;;;;;4929042;29;20403;-63
2023/01/19 07:33:45;;;;;;;7.93;1.25;;;2.80;99.90;;;;;;4912017;29;20052;-63
2023/01/19 07:36:12;;;;;;;11.40;1.40;;;2.90;99.90;;;;;;4928449;29;20063;-63
2023/01/19 07:38:39;;;;;;;15.23;2.08;;;3.00;99.90;;;;;;4915937;29;20040;-63
2023/01/19 07:41:08;;;;;;;14.95;2.00;;;3.20;99.90;;;;;;4933918;29;20507;-63
2023/01/19 07:43:34;;;;;;;8.93;1.27;;;3.30;99.90;;;;;;4932597;29;20051;-63
2023/01/19 07:46:02;;;;;;;16.92;0.93;;;3.30;99.90;;;;;;4928888;29;20060;-63
2023/01/19 07:48:28;;;;;;;11.85;1.27;;;3.30;99.90;;;;;;4937572;29;20051;-63
2023/01/19 07:51:04;;;;;;;4.25;1.23;;;3.40;99.90;;;;;;4924758;29;20046;-63
2023/01/19 07:53:30;;;;;;;9.52;1.63;;;3.40;99.90;;;;;;4929468;29;20123;-63
2023/01/19 07:55:56;;;;;;;20.38;1.55;;;3.50;99.90;;;;;;4930897;29;20079;-63
2023/01/19 07:58:23;;;;;;;18.42;2.00;;;3.50;99.90;;;;;;4929155;29;20135;-63
2023/01/19 08:00:50;;;;;;;23.35;2.75;;;3.50;99.90;;;;;;4915497;29;20083;-63
2023/01/19 08:03:16;;;;;;;16.63;2.00;;;3.50;99.90;;;;;;4931865;29;20103;-63
2023/01/19 08:05:43;;;;;;;19.45;3.08;;;3.50;99.90;;;;;;4933124;29;20044;-63
2023/01/19 08:08:10;;;;;;;14.05;1.60;;;3.60;99.90;;;;;;4932570;29;20391;-63
2023/01/19 08:10:36;;;;;;;25.27;3.45;;;3.60;99.90;;;;;;4915890;29;20447;-63
2023/01/19 08:13:02;;;;;;;25.85;4.35;;;3.60;99.90;;;;;;4915885;29;20047;-62
2023/01/19 08:15:28;;;;;;;35.05;8.10;;;3.70;99.90;;;;;;4932514;29;20434;-63
2023/01/19 08:17:59;;;;;;;30.83;13.90;;;3.70;99.90;;;;;;4932556;29;20047;-63
2023/01/19 08:20:26;;;;;;;48.72;21.20;;;3.80;99.90;;;;;;4932042;29;20047;-62
2023/01/19 08:22:58;;;;;;;47.65;22.02;;;3.70;99.90;;;;;;4905451;29;20047;-63
2023/01/19 08:25:35;;;;;;;44.72;18.95;;;3.80;99.90;;;;;;4932367;29;20048;-63
2023/01/19 08:28:02;;;;;;;35.65;10.65;;;3.90;99.90;;;;;;4908729;29;20051;-62
2023/01/19 08:30:29;;;;;;;24.48;3.30;;;3.90;99.90;;;;;;4916890;29;20059;-63
2023/01/19 08:33:02;;;;;;;23.58;2.72;;;3.90;99.90;;;;;;4911713;29;20048;-63
2023/01/19 08:35:36;;;;;;;32.50;6.53;;;3.90;99.90;;;;;;4930890;29;20134;-63
2023/01/19 08:38:03;;;;;;;52.20;14.00;;;4.00;99.90;;;;;;4929073;29;20142;-63
2023/01/19 08:40:35;;;;;;;37.60;10.50;;;4.10;99.90;;;;;;4932335;29;20213;-63
2023/01/19 08:43:05;;;;;;;48.72;15.35;;;4.20;99.90;;;;;;4931353;29;20035;-63
2023/01/19 08:45:31;;;;;;;47.63;15.48;;;4.30;99.90;;;;;;4932038;29;20768;-63
2023/01/19 08:48:00;;;;;;;38.88;11.15;;;4.30;99.90;;;;;;4931536;29;20114;-63
2023/01/19 08:50:28;;;;;;;58.92;18.17;;;4.30;99.90;;;;;;4930556;29;20091;-63
2023/01/19 08:52:58;;;;;;;59.70;17.63;;;4.30;99.90;;;;;;4931741;29;20058;-63
2023/01/19 08:55:25;;;;;;;55.00;15.13;;;4.30;99.90;;;;;;4930530;29;20117;-63
2023/01/19 08:58:02;;;;;;;47.97;9.82;;;4.30;99.90;;;;;;4931816;29;20487;-63
2023/01/19 09:00:30;;;;;;;48.30;7.13;;;4.30;99.90;;;;;;4931658;29;20054;-63
2023/01/19 09:02:57;;;;;;;50.80;8.13;;;4.30;99.90;;;;;;4931162;29;20044;-63
2023/01/19 09:05:23;;;;;;;33.63;4.85;;;4.20;99.90;;;;;;4914012;29;20349;-63
2023/01/19 09:07:50;;;;;;;26.50;3.65;;;4.20;99.90;;;;;;4920125;29;20056;-63
2023/01/19 09:10:17;;;;;;;28.05;9.88;;;4.10;99.90;;;;;;4931558;29;20074;-63
2023/01/19 09:12:43;;;;;;;27.77;9.07;;;4.10;99.90;;;;;;4931132;29;20075;-63
2023/01/19 09:15:11;;;;;;;38.78;16.95;;;4.10;99.90;;;;;;4931952;29;20051;-63
2023/01/19 09:17:37;;;;;;;26.88;8.93;;;4.10;99.90;;;;;;4906821;29;20055;-63
2023/01/19 09:20:04;;;;;;;17.65;5.03;;;4.10;99.90;;;;;;4929870;29;20058;-63
2023/01/19 09:22:38;;;;;;;17.83;3.55;;;4.20;99.90;;;;;;4931414;29;20062;-63
2023/01/19 09:25:06;;;;;;;24.42;3.35;;;4.30;99.90;;;;;;4930664;29;20059;-62
2023/01/19 09:27:32;;;;;;;29.02;9.77;;;4.40;99.90;;;;;;4931125;29;20140;-63
2023/01/19 09:29:57;;;;;;;30.65;14.45;;;4.50;99.90;;;;;;4896903;29;20114;-64
2023/01/19 09:32:23;;;;;;;23.55;11.77;;;4.60;99.90;;;;;;4929665;29;20055;-63
2023/01/19 09:34:49;;;;;;;9.73;1.90;;;4.70;99.90;;;;;;4912174;29;20506;-63
2023/01/19 09:37:16;;;;;;;21.70;6.65;;;4.80;99.90;;;;;;4929475;29;20119;-63
2023/01/19 09:39:41;;;;;;;19.50;5.45;;;4.90;99.90;;;;;;4924719;29;20050;-63
2023/01/19 09:42:36;;;;;;;17.58;3.85;;;4.80;99.90;;;;;;4930866;29;20039;-63
2023/01/19 09:45:07;;;;;;;22.08;3.13;;;4.90;99.90;;;;;;4930952;29;20149;-63
2023/01/19 09:47:35;;;;;;;;;;;5.00;99.90;;;;;;4930286;29;20051;-63
2023/01/19 09:50:26;;;;;;;19.92;2.92;;;5.00;99.90;;;;;;4930378;29;19930;-63
2023/01/19 09:53:06;;;;;;;19.10;1.48;;;5.10;99.90;;;;;;4931039;29;20044;-63
2023/01/19 09:55:32;;;;;;;16.02;1.77;;;5.10;99.90;;;;;;4929456;29;20040;-63
2023/01/19 09:57:59;;;;;;;19.65;1.50;;;5.20;99.90;;;;;;4930967;29;20039;-63
2023/01/19 10:00:27;;;;;;;17.67;2.35;;;5.10;99.90;;;;;;4928147;29;20651;-62
2023/01/19 10:03:19;;;;;;;15.73;2.70;;;5.10;99.90;;;;;;4931170;29;20044;-63
2023/01/19 10:06:02;;;;;;;18.63;2.15;;;5.00;99.90;;;;;;4899416;29;20059;-63
2023/01/19 10:09:02;;;;;;;9.00;1.52;;;5.00;99.90;;;;;;4930007;29;20055;-63
2023/01/19 10:11:50;;;;;;;22.27;2.92;;;4.90;99.90;;;;;;4930301;29;20083;-63
2023/01/19 10:14:44;;;;;;;10.35;1.52;;;4.80;99.90;;;;;;4929259;29;20062;-63
2023/01/19 10:17:57;;;;;;;15.00;2.63;;;4.80;99.90;;;;;;4930109;29;20047;-63
2023/01/19 10:20:32;;;;;;;15.27;2.80;;;4.70;99.90;;;;;;4924356;29;20066;-63
2023/01/19 10:22:59;;;;;;;18.80;2.90;;;4.70;99.90;;;;;;4930276;29;20048;-63
2023/01/19 10:25:26;;;;;;;15.38;2.20;;;4.70;99.90;;;;;;4912080;29;20058;-63
2023/01/19 10:27:52;;;;;;;11.70;0.73;;;4.70;99.90;;;;;;4927776;29;20043;-63
2023/01/19 10:30:22;;;;;;;17.42;2.78;;;4.80;99.90;;;;;;4929414;29;20514;-63
2023/01/19 10:32:49;;;;;;;15.18;1.95;;;4.80;99.90;;;;;;4928975;29;20043;-63
2023/01/19 10:35:23;;;;;;;23.65;2.10;;;4.80;99.90;;;;;;4929946;29;20083;-63
2023/01/19 10:38:00;;;;;;;12.55;2.15;;;4.80;99.90;;;;;;4912478;29;20106;-63
2023/01/19 10:40:38;;;;;;;15.73;2.13;;;4.90;99.90;;;;;;4900378;29;20111;-63
2023/01/19 10:43:43;;;;;;;22.48;2.55;;;4.90;99.90;;;;;;4929605;29;20103;-63
2023/01/19 10:46:45;;;;;;;18.70;2.10;;;4.90;99.90;;;;;;4925537;29;20051;-63
2023/01/19 10:49:25;;;;;;;2.55;0.90;;;5.00;99.90;;;;;;4870672;29;20056;-63
2023/01/19 10:51:51;;;;;;;14.10;2.38;;;5.10;99.90;;;;;;4915661;29;20048;-63
2023/01/19 10:54:19;;;;;;;18.00;1.90;;;5.10;99.90;;;;;;4929570;29;20152;-63
2023/01/19 10:56:52;;;;;;;7.22;1.08;;;5.20;99.90;;;;;;4929339;29;20055;-63
2023/01/19 10:59:29;;;;;;;9.02;1.35;;;5.20;99.90;;;;;;4929265;29;20067;-63
2023/01/19 11:02:16;;;;;;;17.52;2.33;;;5.20;99.90;;;;;;4928873;29;20047;-62
2023/01/19 11:04:43;;;;;;;19.05;2.75;;;5.30;99.90;;;;;;4923769;29;20060;-63
2023/01/19 11:07:18;;;;;;;6.70;0.98;;;5.40;99.90;;;;;;4930049;29;20091;-63
2023/01/19 11:10:09;;;;;;;;;;;5.40;99.90;;;;;;4929349;29;20475;-63
2023/01/19 11:12:41;;;;;;;8.80;1.48;;;5.40;99.90;;;;;;4928118;29;19922;-63
2023/01/19 11:15:19;;;;;;;11.10;2.17;;;5.50;99.90;;;;;;4927893;29;20657;-63
2023/01/19 11:17:47;;;;;;;11.32;2.03;;;5.50;99.90;;;;;;4929568;29;20056;-63
2023/01/19 11:20:34;;;;;;;14.43;1.30;;;5.50;99.90;;;;;;4930329;29;20736;-63
2023/01/19 11:23:07;;;;;;;14.32;2.55;;;5.60;99.90;;;;;;4928345;29;20044;-63
2023/01/19 11:25:34;;;;;;;15.73;1.85;;;5.60;99.90;;;;;;4911400;29;20043;-63
2023/01/19 11:28:01;;;;;;;16.85;2.80;;;5.60;99.90;;;;;;4912095;29;20115;-63
2023/01/19 11:30:29;;;;;;;10.25;1.02;;;5.70;99.90;;;;;;4908920;29;20062;-63
2023/01/19 11:32:55;;;;;;;14.02;2.40;;;5.70;99.90;;;;;;4928673;29;20048;-63
2023/01/19 11:35:36;;;;;;;13.80;1.77;;;5.70;99.90;;;;;;4927833;29;20063;-63
2023/01/19 11:38:05;;;;;;;15.85;2.70;;;5.60;99.90;;;;;;4928577;29;20059;-63
2023/01/19 11:40:32;;;;;;;13.90;1.90;;;5.60;99.90;;;;;;4928848;29;20056;-63
2023/01/19 11:42:58;;;;;;;17.85;3.17;;;5.70;99.90;;;;;;4929569;29;20047;-63
2023/01/19 11:45:25;;;;;;;13.25;2.25;;;5.80;99.90;;;;;;4928390;29;20044;-63
2023/01/19 11:47:51;;;;;;;21.48;2.10;;;5.80;99.90;;;;;;4927494;29;20062;-63
2023/01/19 11:50:41;;;;;;;7.45;1.60;;;5.80;99.90;;;;;;4925899;29;20624;-63
2023/01/19 11:53:25;;;;;;;15.65;2.17;;;5.80;99.90;;;;;;4926222;29;20126;-63
2023/01/19 11:56:01;;;;;;;5.60;1.33;;;5.80;99.90;;;;;;4928366;29;20079;-63
2023/01/19 11:58:29;;;;;;;5.82;0.95;;;5.90;99.90;;;;;;4927137;29;20155;-63
2023/01/19 12:00:57;;;;;;;14.38;2.00;;;5.90;99.90;;;;;;4927631;29;20044;-63
2023/01/19 12:03:41;;;;;;;9.20;1.30;;;5.90;99.90;;;;;;4927797;29;20055;-63
2023/01/19 12:06:46;;;;;;;17.77;1.52;;;5.90;99.90;;;;;;4928918;29;20076;-63
2023/01/19 12:09:19;;;;;;;10.15;1.50;;;6.00;99.90;;;;;;4895983;29;20115;-63
2023/01/19 12:11:54;;;;;;;6.50;0.77;;;6.00;99.90;;;;;;4928651;29;20054;-63
2023/01/19 12:14:30;;;;;;;18.73;2.42;;;5.90;99.90;;;;;;4928299;29;20059;-63
2023/01/19 12:16:59;;;;;;;6.10;0.95;;;5.90;99.90;;;;;;4920871;29;20040;-62
2023/01/19 12:19:38;;;;;;;19.08;1.95;;;6.00;99.90;;;;;;4914406;29;20496;-63
2023/01/19 12:22:05;;;;;;;13.30;1.65;;;6.00;99.90;;;;;;4920432;29;20047;-66
2023/01/19 12:24:42;;;;;;;13.65;2.25;;;6.10;99.90;;;;;;4928608;29;20044;-63
2023/01/19 12:27:22;;;;;;;3.80;0.98;;;6.20;99.90;;;;;;4915101;29;20044;-63
2023/01/19 12:29:49;;;;;;;9.35;0.73;;;6.30;99.90;;;;;;4928866;29;20059;-63
2023/01/19 12:32:15;;;;;;;15.00;1.92;;;6.10;99.80;;;;;;4903685;29;20499;-63
2023/01/19 12:34:45;;;;;;;11.45;1.80;;;6.00;97.50;;;;;;4928002;29;21358;-63
2023/01/19 12:37:35;;;;;;;5.30;0.63;;;5.90;99.90;;;;;;4928579;29;20519;-63
2023/01/19 12:40:27;;;;;;;8.57;2.30;;;5.70;99.90;;;;;;4928304;29;20079;-64
2023/01/19 12:43:00;;;;;;;9.57;1.33;;;5.50;99.90;;;;;;4924607;29;20060;-64
2023/01/19 12:45:38;;;;;;;10.48;1.35;;;5.50;99.90;;;;;;4932232;29;20056;-64
2023/01/19 12:48:10;;;;;;;15.10;1.23;;;5.40;99.90;;;;;;4931974;29;20047;-64
2023/01/19 12:50:37;;;;;;;11.25;1.35;;;5.30;99.90;;;;;;4910756;29;20075;-64
2023/01/19 12:53:07;;;;;;;10.80;2.38;;;5.30;99.90;;;;;;4929954;29;20475;-64
2023/01/19 12:55:37;;;;;;;3.15;0.45;;;5.40;99.90;;;;;;4931438;29;20130;-64
2023/01/19 12:58:16;;;;;;;6.72;1.42;;;5.50;99.90;;;;;;4931700;29;20082;-64
2023/01/19 13:00:44;;;;;;;12.65;1.20;;;5.70;99.90;;;;;;4931699;29;20043;-64
2023/01/19 13:03:16;;;;;;;3.42;0.73;;;5.80;99.90;;;;;;4930397;29;20106;-64
2023/01/19 13:05:42;;;;;;;7.28;1.42;;;6.00;99.90;;;;;;4930554;29;20058;-64
2023/01/19 13:08:07;;;;;;;15.43;1.25;;;6.10;99.90;;;;;;4927337;29;20040;-64
2023/01/19 13:10:58;;;;;;;1.98;0.35;;;6.20;99.90;;;;;;4930477;29;20054;-64
2023/01/19 13:13:42;;;;;;;14.18;4.88;;;6.20;98.20;;;;;;4931928;29;20051;-64
2023/01/19 13:16:17;;;;;;;10.77;3.97;;;5.90;99.90;;;;;;4931220;29;20460;-64
2023/01/19 13:18:47;;;;;;;5.05;1.60;;;5.60;99.90;;;;;;4925539;29;20054;-64
2023/01/19 13:21:53;;;;;;;7.95;1.50;;;5.20;99.90;;;;;;4931633;29;20051;-64